Time;durP1;ratioP1;P1;durP2;ratioP2;P2;SDS_P1;SDS_P2;PMS_P1;PMS_P2;Temp;Humidity;BMP_temperature;BMP_pressure;BME280_temperature;BME280_humidity;BME280_pressure;Samples;Min_cycle;Max_cycle;Signal;HPM_P1;HPM_P2
2021/01/31 00:00:49;;;;;;;26.15;12.80;;;;;;;-3.52;80.05;95376.12;1743325;81;21306;-90
2021/01/31 00:03:25;;;;;;;22.20;12.18;;;;;;;-3.60;80.11;95384.22;1747557;81;21119;-89
2021/01/31 00:05:56;;;;;;;19.30;10.78;;;;;;;-3.65;80.21;95386.68;1749725;81;21102;-90
2021/01/31 00:08:25;;;;;;;23.92;12.53;;;;;;;-3.63;80.32;95385.45;1749825;81;21714;-91
2021/01/31 00:10:55;;;;;;;27.13;13.00;;;;;;;-3.62;80.29;95390.13;1758552;80;21136;-91
2021/01/31 00:13:26;;;;;;;23.77;12.98;;;;;;;-3.63;80.29;95394.52;1721626;83;21168;-91
2021/01/31 00:15:54;;;;;;;;;;;;;;;-3.59;80.36;95402.12;1696752;82;21139;-90
2021/01/31 00:18:26;;;;;;;23.05;11.05;;;;;;;-3.50;80.56;95400.03;1688812;84;20377;-90
2021/01/31 00:20:56;;;;;;;22.95;11.88;;;;;;;-3.43;80.68;95403.81;1699445;83;21561;-90
2021/01/31 00:23:25;;;;;;;26.87;14.00;;;;;;;-3.38;80.67;95404.75;1704010;84;21139;-91
2021/01/31 00:25:52;;;;;;;22.35;12.35;;;;;;;-3.32;80.70;95409.55;1703092;82;21152;-91
2021/01/31 00:28:24;;;;;;;23.30;13.62;;;;;;;-3.26;80.71;95409.95;1709169;82;21139;-90
2021/01/31 00:30:51;;;;;;;27.10;12.47;;;;;;;-3.21;80.69;95404.13;1692583;84;21147;-90
2021/01/31 00:33:26;;;;;;;20.43;12.23;;;;;;;-3.17;80.55;95407.34;1690178;84;21131;-90
2021/01/31 00:35:56;;;;;;;22.65;10.80;;;;;;;-3.16;80.32;95405.53;1688772;84;21152;-90
2021/01/31 00:38:27;;;;;;;22.10;10.28;;;;;;;-3.15;80.13;95404.02;1694351;84;21483;-90
2021/01/31 00:40:55;;;;;;;19.10;10.70;;;;;;;-3.09;80.05;95409.62;1694227;84;21497;-89
2021/01/31 00:43:22;;;;;;;23.00;11.25;;;;;;;-3.12;79.50;95398.37;1702607;84;21177;-89
2021/01/31 00:45:50;;;;;;;26.12;12.58;;;;;;;-3.22;79.07;95400.73;1705893;84;21166;-89
2021/01/31 00:48:17;;;;;;;23.87;13.28;;;;;;;-3.27;79.18;95407.58;1700373;83;21159;-89
2021/01/31 00:50:44;;;;;;;22.70;11.30;;;;;;;-3.25;79.36;95412.03;1691751;84;21103;-89
2021/01/31 00:53:11;;;;;;;23.83;13.78;;;;;;;-3.27;79.29;95403.19;1696333;84;21517;-90
2021/01/31 00:55:38;;;;;;;23.30;11.97;;;;;;;-3.29;79.29;95407.80;1703739;84;21157;-87
2021/01/31 00:58:06;;;;;;;21.00;11.55;;;;;;;-3.29;79.18;95409.09;1704656;84;21156;-91
2021/01/31 01:00:38;;;;;;;25.75;12.53;;;;;;;-3.39;78.88;95416.09;1709869;84;21207;-91
2021/01/31 01:03:08;;;;;;;21.35;11.48;;;;;;;-3.49;78.98;95415.06;1689859;84;21526;-90
2021/01/31 01:05:36;;;;;;;16.75;8.63;;;;;;;-3.53;79.08;95415.20;1697778;84;21160;-91
2021/01/31 01:08:04;;;;;;;20.27;11.45;;;;;;;-3.61;78.95;95409.33;1698764;84;21155;-91
2021/01/31 01:10:35;;;;;;;26.73;13.58;;;;;;;-3.68;79.04;95411.19;1710068;84;21128;-90
2021/01/31 01:13:05;;;;;;;25.80;13.58;;;;;;;-3.75;79.22;95405.32;1706991;84;21195;-92
2021/01/31 01:15:33;;;;;;;20.65;9.50;;;;;;;-3.74;79.33;95413.37;1700047;84;21618;-91
2021/01/31 01:18:00;;;;;;;20.52;11.10;;;;;;;-3.75;79.22;95420.86;1711347;84;21159;-92
2021/01/31 01:20:28;;;;;;;24.57;12.37;;;;;;;-3.78;79.03;95408.35;1707724;83;21160;-90
2021/01/31 01:22:55;;;;;;;22.98;11.93;;;;;;;-3.77;79.19;95402.16;1694957;84;21100;-91
2021/01/31 01:25:24;;;;;;;23.25;12.20;;;;;;;-3.75;79.12;95400.65;1705921;84;21131;-90
2021/01/31 01:27:51;;;;;;;26.25;12.75;;;;;;;-3.78;78.96;95404.47;1696057;84;21502;-91
2021/01/31 01:30:24;;;;;;;26.42;12.82;;;;;;;-3.79;78.88;95396.41;1697512;84;21108;-91
2021/01/31 01:32:51;;;;;;;17.75;9.63;;;;;;;-3.74;78.89;95398.34;1696353;84;21511;-92
2021/01/31 01:35:20;;;;;;;23.65;11.88;;;;;;;-3.74;78.62;95393.16;1690914;84;21527;-91
2021/01/31 01:37:47;;;;;;;23.50;11.85;;;;;;;-3.75;78.75;95387.70;1686409;84;21146;-91
2021/01/31 01:40:32;;;;;;;22.70;12.75;;;;;;;-3.69;78.86;95397.96;1682351;84;21322;-90
2021/01/31 01:43:00;;;;;;;21.57;11.88;;;;;;;-3.64;78.82;95398.11;1693315;82;21134;-91
2021/01/31 01:45:28;;;;;;;23.85;13.32;;;;;;;-3.65;78.36;95388.77;1695407;84;21147;-91
2021/01/31 01:48:03;;;;;;;26.60;13.98;;;;;;;-3.68;78.50;95384.00;1701241;82;21297;-92
2021/01/31 01:50:48;;;;;;;24.40;12.70;;;;;;;-3.64;78.73;95389.05;1687302;82;21332;-92
2021/01/31 01:53:19;;;;;;;27.55;12.90;;;;;;;-3.58;78.75;95387.38;1703806;82;21093;-91
2021/01/31 01:56:07;;;;;;;24.80;12.33;;;;;;;-3.57;78.50;95394.64;1693738;84;21157;-92
2021/01/31 01:58:34;;;;;;;22.80;12.33;;;;;;;-3.56;78.38;95394.92;1702954;82;21164;-91
2021/01/31 02:01:03;;;;;;;31.57;11.85;;;;;;;-3.59;78.08;95395.65;1721800;82;21267;-93
2021/01/31 02:03:34;;;;;;;26.45;13.62;;;;;;;-3.67;77.60;95396.44;1689522;84;21351;-92
2021/01/31 02:06:18;;;;;;;21.30;11.57;;;;;;;-3.78;77.60;95398.00;1691763;84;21472;-90
2021/01/31 02:08:47;;;;;;;21.93;11.53;;;;;;;-3.84;77.63;95396.26;1705902;82;21293;-91
2021/01/31 02:11:15;;;;;;;21.40;10.40;;;;;;;-3.86;77.82;95403.45;1693770;82;21551;-90
2021/01/31 02:13:46;;;;;;;20.10;10.93;;;;;;;-3.82;77.99;95396.03;1692123;84;21695;-91
2021/01/31 02:16:24;;;;;;;20.37;10.75;;;;;;;-3.83;77.99;95400.42;1684587;82;21305;-91
2021/01/31 02:19:30;;;;;;;21.10;11.10;;;;;;;-3.81;78.03;95402.29;1689196;84;21278;-92
2021/01/31 02:22:35;;;;;;;19.57;9.68;;;;;;;-3.77;78.10;95403.45;1692971;84;21157;-91
2021/01/31 02:25:30;;;;;;;19.15;9.15;;;;;;;-3.72;78.03;95410.06;1706760;82;21178;-92
2021/01/31 02:28:38;;;;;;;23.87;10.70;;;;;;;-3.63;78.10;95410.05;1686529;82;21187;-94
2021/01/31 02:31:16;;;;;;;19.02;9.75;;;;;;;-3.56;78.03;95408.66;1698011;82;21187;-92
2021/01/31 02:34:06;;;;;;;19.27;9.30;;;;;;;-3.53;77.74;95411.31;1693934;83;21511;-92
2021/01/31 02:36:54;;;;;;;19.05;8.13;;;;;;;-3.54;77.72;95413.62;1696624;83;21135;-92
2021/01/31 02:39:45;;;;;;;28.55;14.93;;;;;;;-3.60;77.27;95416.59;1695582;83;21112;-91
2021/01/31 02:42:23;;;;;;;28.05;14.33;;;;;;;-3.77;77.39;95420.28;1691703;84;21157;-91
2021/01/31 02:45:08;;;;;;;33.95;15.18;;;;;;;-3.81;77.66;95418.33;1706957;84;21204;-91
2021/01/31 02:47:40;;;;;;;26.60;14.10;;;;;;;-3.77;77.85;95422.09;1693734;84;21175;-91
2021/01/31 02:50:18;;;;;;;28.47;14.50;;;;;;;-3.74;77.95;95419.84;1696122;84;21102;-90
2021/01/31 02:52:56;;;;;;;24.15;12.60;;;;;;;-3.70;78.02;95426.16;1702862;84;21116;-92
2021/01/31 02:55:41;;;;;;;20.02;10.28;;;;;;;-3.65;78.00;95423.73;1698491;83;21169;-92
2021/01/31 02:58:16;;;;;;;20.37;10.13;;;;;;;-3.61;77.70;95422.78;1700070;84;21146;-92
2021/01/31 03:01:16;;;;;;;19.27;9.43;;;;;;;-3.62;77.37;95423.80;1696213;84;21112;-91
2021/01/31 03:03:51;;;;;;;20.12;8.90;;;;;;;-3.71;76.88;95428.97;1693852;84;21157;-92
2021/01/31 03:06:24;;;;;;;26.70;12.70;;;;;;;-3.87;76.78;95430.86;1699208;83;21174;-92
2021/01/31 03:09:05;;;;;;;21.27;11.00;;;;;;;-3.94;76.97;95437.39;1695076;84;21175;-94
2021/01/31 03:11:43;;;;;;;22.17;10.75;;;;;;;-3.98;77.16;95429.78;1710864;83;21195;-93
2021/01/31 03:14:30;;;;;;;23.00;10.93;;;;;;;-3.97;77.31;95437.83;1697225;84;21179;-93
2021/01/31 03:17:30;;;;;;;20.12;10.95;;;;;;;-3.95;77.31;95444.36;1713188;83;21499;-93
2021/01/31 03:20:08;;;;;;;27.32;13.15;;;;;;;-3.96;77.19;95442.00;1699004;84;21096;-93
2021/01/31 03:23:16;;;;;;;22.15;11.48;;;;;;;-4.00;77.24;95444.73;1699415;84;21162;-92
2021/01/31 03:26:02;;;;;;;21.50;11.83;;;;;;;-4.01;77.26;95444.45;1696860;84;21483;-93
2021/01/31 03:28:30;;;;;;;20.85;11.63;;;;;;;-4.05;77.09;95445.89;1691485;84;21175;-94
2021/01/31 03:31:00;;;;;;;22.70;12.13;;;;;;;-4.07;77.16;95447.91;1690456;84;21131;-92
2021/01/31 03:33:38;;;;;;;21.20;11.93;;;;;;;-4.05;77.28;95455.75;1704633;84;21183;-91
2021/01/31 03:36:05;;;;;;;24.00;12.68;;;;;;;-4.04;77.21;95452.66;1683235;84;21144;-91
2021/01/31 03:38:37;;;;;;;23.18;12.50;;;;;;;-4.04;77.24;95453.44;1696519;84;21227;-91
2021/01/31 03:41:17;;;;;;;27.32;13.95;;;;;;;-3.98;77.43;95444.02;1690015;84;22095;-91
2021/01/31 03:43:45;;;;;;;24.70;13.13;;;;;;;-3.93;77.39;95444.97;1687067;82;21129;-92
2021/01/31 03:46:52;;;;;;;31.25;15.25;;;;;;;-3.92;77.34;95450.43;1705320;82;21286;-91
2021/01/31 03:49:33;;;;;;;28.47;14.73;;;;;;;-3.96;77.44;95449.77;1685445;84;21258;-93
2021/01/31 03:52:00;;;;;;;29.52;13.58;;;;;;;-4.00;77.50;95456.38;1693110;84;21179;-92
2021/01/31 03:54:27;;;;;;;27.05;15.23;;;;;;;-3.97;77.61;95459.83;1679800;84;21324;-92
2021/01/31 03:57:18;;;;;;;27.05;14.10;;;;;;;-3.90;77.80;95455.39;1719386;82;21533;-92
2021/01/31 03:59:55;;;;;;;35.25;17.87;;;;;;;-3.78;77.94;95452.38;1683167;84;21634;-93
2021/01/31 04:02:28;;;;;;;24.32;13.25;;;;;;;-3.72;77.99;95461.06;1700672;82;21128;-92
2021/01/31 04:04:57;;;;;;;30.82;15.35;;;;;;;-3.75;77.75;95460.99;1689776;83;21147;-91
2021/01/31 04:07:28;;;;;;;29.18;14.87;;;;;;;-3.75;77.90;95468.76;1702391;83;21227;-91
2021/01/31 04:10:01;;;;;;;33.65;17.48;;;;;;;-3.70;78.05;95470.19;1696086;83;21162;-92
2021/01/31 04:12:36;;;;;;;30.20;16.80;;;;;;;-3.70;77.94;95477.95;1758399;80;21182;-92
2021/01/31 04:15:29;;;;;;;29.98;16.95;;;;;;;-3.70;78.07;95481.84;1744334;80;21125;-91
2021/01/31 04:17:57;;;;;;;26.82;15.03;;;;;;;-3.68;78.42;95482.91;1743041;81;21151;-92
2021/01/31 04:20:24;;;;;;;27.35;12.05;;;;;;;-3.67;78.63;95485.79;1752204;80;21111;-92
2021/01/31 04:22:51;;;;;;;24.15;12.30;;;;;;;-3.65;78.72;95491.06;1757490;80;21131;-91
2021/01/31 04:25:18;;;;;;;23.15;12.80;;;;;;;-3.69;78.68;95491.19;1756940;81;21103;-91
2021/01/31 04:27:45;;;;;;;18.30;10.50;;;;;;;-3.74;78.65;95493.64;1677107;84;21493;-92
2021/01/31 04:30:14;;;;;;;20.88;11.30;;;;;;;-3.76;78.71;95493.08;1684608;83;21151;-90
2021/01/31 04:32:41;;;;;;;20.48;11.35;;;;;;;-3.80;78.71;95491.94;1693102;83;21163;-93
2021/01/31 04:35:10;;;;;;;16.67;8.90;;;;;;;-3.83;78.71;95493.63;1758286;80;21118;-91
2021/01/31 04:37:38;;;;;;;14.07;8.63;;;;;;;-3.83;78.75;95487.66;1747758;80;21154;-90
2021/01/31 04:40:10;;;;;;;15.48;9.18;;;;;;;-3.85;78.67;95490.47;1748559;80;21134;-91
2021/01/31 04:42:38;;;;;;;14.70;8.90;;;;;;;-3.85;78.62;95494.36;1759038;80;21565;-92
2021/01/31 04:45:09;;;;;;;14.55;8.03;;;;;;;-3.89;78.55;95501.77;1746531;81;21118;-90
2021/01/31 04:48:11;;;;;;;14.80;7.90;;;;;;;-3.91;78.54;95498.61;1720977;81;21115;-93
2021/01/31 04:50:49;;;;;;;15.03;7.65;;;;;;;-3.86;78.60;95499.25;1697282;83;21500;-91
2021/01/31 04:54:12;;;;;;;13.88;8.18;;;;;;;-3.86;78.57;95499.25;1693017;83;21499;-92
2021/01/31 04:56:54;;;;;;;13.22;7.28;;;;;;;-3.88;78.46;95499.97;1757590;80;21138;-91
2021/01/31 04:59:32;;;;;;;14.50;8.53;;;;;;;-3.87;78.54;95500.25;1686194;83;21143;-92
2021/01/31 05:02:17;;;;;;;17.07;8.48;;;;;;;-3.87;78.47;95511.91;1692279;84;21097;-91
2021/01/31 05:04:57;;;;;;;16.95;8.20;;;;;;;-3.89;78.47;95515.22;1678778;84;21164;-91
2021/01/31 05:07:38;;;;;;;13.80;7.85;;;;;;;-3.93;78.42;95521.33;1703227;83;21631;-91
2021/01/31 05:10:11;;;;;;;15.75;8.05;;;;;;;-3.97;78.33;95527.13;1701832;83;21235;-92
2021/01/31 05:13:20;;;;;;;18.15;8.78;;;;;;;-4.01;78.38;95530.66;1698049;83;21190;-91
2021/01/31 05:16:10;;;;;;;15.90;8.50;;;;;;;-4.04;78.46;95531.09;1684503;84;21148;-91
2021/01/31 05:18:51;;;;;;;16.27;7.87;;;;;;;-4.07;78.55;95531.52;1688589;83;21138;-92
2021/01/31 05:21:23;;;;;;;15.10;7.37;;;;;;;-4.05;78.62;95535.19;1689245;84;21124;-90
2021/01/31 05:24:01;;;;;;;16.37;8.58;;;;;;;-4.13;78.54;95537.53;1700320;83;21165;-94
2021/01/31 05:26:37;;;;;;;13.08;7.35;;;;;;;-4.19;78.59;95531.42;1696029;84;21168;-92
2021/01/31 05:29:09;;;;;;;18.90;8.88;;;;;;;-4.26;78.62;95539.72;1674501;84;21334;-91
2021/01/31 05:31:38;;;;;;;14.53;8.10;;;;;;;-4.37;78.67;95535.23;1680054;84;21090;-92
2021/01/31 05:34:05;;;;;;;14.75;8.20;;;;;;;-4.50;78.78;95536.14;1687398;83;21120;-92
2021/01/31 05:36:34;;;;;;;15.38;8.40;;;;;;;-4.58;78.90;95542.06;1766004;80;21187;-92
2021/01/31 05:39:02;;;;;;;19.82;10.35;;;;;;;-4.74;79.17;95543.86;1679904;83;21209;-91
2021/01/31 05:41:47;;;;;;;16.07;9.20;;;;;;;-4.89;79.48;95553.20;1685125;83;21492;-91
2021/01/31 05:44:25;;;;;;;14.65;9.18;;;;;;;-4.96;79.79;95558.39;1690069;83;21154;-91
2021/01/31 05:46:57;;;;;;;14.10;7.30;;;;;;;-5.02;79.97;95564.89;1690079;83;21503;-92
2021/01/31 05:49:45;;;;;;;20.35;9.53;;;;;;;-5.03;80.20;95565.39;1691473;84;21216;-92
2021/01/31 05:52:28;;;;;;;17.02;9.10;;;;;;;-5.06;80.32;95569.69;1681931;84;21532;-92
2021/01/31 05:54:58;;;;;;;15.20;9.05;;;;;;;-5.09;80.60;95577.33;1681345;83;21281;-91
2021/01/31 05:57:32;;;;;;;15.80;9.40;;;;;;;-5.13;80.65;95583.13;1651307;86;21207;-92
2021/01/31 06:00:04;;;;;;;15.60;8.48;;;;;;;-5.11;80.62;95591.45;1688146;84;21152;-92
2021/01/31 06:02:33;;;;;;;15.40;7.80;;;;;;;-5.07;80.61;95596.50;1678591;84;21189;-93
2021/01/31 06:05:20;;;;;;;20.23;9.53;;;;;;;-5.02;80.59;95594.61;1682209;84;21158;-92
2021/01/31 06:08:14;;;;;;;17.52;9.98;;;;;;;-5.03;80.56;95596.91;1684272;83;21638;-91
2021/01/31 06:10:43;;;;;;;21.35;10.15;;;;;;;-5.02;80.54;95599.28;1689889;83;21135;-92
2021/01/31 06:13:21;;;;;;;20.90;11.13;;;;;;;-4.99;80.54;95605.83;1694491;83;21508;-92
2021/01/31 06:15:56;;;;;;;17.45;9.83;;;;;;;-4.98;80.54;95608.70;1693444;83;21226;-92
2021/01/31 06:18:38;;;;;;;19.27;9.33;;;;;;;-4.98;80.42;95607.41;1706629;83;21535;-91
2021/01/31 06:21:15;;;;;;;15.18;8.35;;;;;;;-4.98;80.36;95611.28;1722560;81;21161;-91
2021/01/31 06:23:47;;;;;;;16.37;8.93;;;;;;;-4.98;80.31;95610.78;1751202;80;21122;-92
2021/01/31 06:26:24;;;;;;;17.07;8.80;;;;;;;-4.94;80.24;95613.74;1744603;80;21152;-91
2021/01/31 06:28:56;;;;;;;17.50;8.38;;;;;;;-4.92;80.18;95620.31;1679771;83;21492;-91
2021/01/31 06:31:48;;;;;;;18.20;9.15;;;;;;;-4.89;80.13;95617.31;1677211;83;21167;-90
2021/01/31 06:34:15;;;;;;;14.38;7.85;;;;;;;-4.83;80.16;95615.19;1706796;83;21604;-90
2021/01/31 06:37:06;;;;;;;17.02;9.75;;;;;;;-4.80;79.95;95623.02;1753741;80;21114;-90
2021/01/31 06:39:58;;;;;;;25.00;12.07;;;;;;;-4.86;79.87;95629.82;1684399;83;21171;-90
2021/01/31 06:42:40;;;;;;;20.92;11.40;;;;;;;-4.90;79.86;95632.53;1669735;83;21222;-90
2021/01/31 06:45:15;;;;;;;21.55;11.80;;;;;;;-4.87;80.07;95633.91;1696002;83;21161;-90
2021/01/31 06:48:02;;;;;;;18.37;10.72;;;;;;;-4.87;80.15;95637.28;1697890;83;21157;-90
2021/01/31 06:51:00;;;;;;;17.27;9.80;;;;;;;-4.85;80.13;95638.37;1700718;82;21123;-90
2021/01/31 06:53:41;;;;;;;17.27;8.80;;;;;;;-4.76;80.31;95641.52;1682525;83;21146;-91
2021/01/31 06:56:22;;;;;;;18.37;10.20;;;;;;;-4.67;80.09;95637.18;1642586;83;21139;-90
2021/01/31 06:59:16;;;;;;;20.90;9.98;;;;;;;-4.65;79.93;95634.38;1686074;84;21164;-91
2021/01/31 07:02:00;;;;;;;17.07;9.48;;;;;;;-4.63;79.89;95640.17;1681766;84;21206;-91
2021/01/31 07:04:57;;;;;;;18.55;9.23;;;;;;;-4.65;79.69;95640.85;1688198;83;21274;-89
2021/01/31 07:07:53;;;;;;;17.42;9.25;;;;;;;-4.61;79.73;95639.45;1691482;84;21187;-89
2021/01/31 07:10:41;;;;;;;14.75;8.93;;;;;;;-4.51;79.75;95640.58;1687044;83;21174;-91
2021/01/31 07:13:55;;;;;;;18.98;9.55;;;;;;;-4.38;79.77;95644.09;1691419;83;21126;-90
2021/01/31 07:17:01;;;;;;;16.93;9.55;;;;;;;-4.23;79.85;95644.09;1700424;83;21189;-91
2021/01/31 07:19:37;;;;;;;15.15;8.18;;;;;;;-4.15;79.57;95652.11;1699858;84;21195;-89
2021/01/31 07:22:21;;;;;;;16.70;9.08;;;;;;;-4.13;79.29;95641.05;1698487;83;21156;-90
2021/01/31 07:24:53;;;;;;;13.62;8.05;;;;;;;-4.24;78.90;95648.18;1691295;84;21191;-90
2021/01/31 07:27:46;;;;;;;16.12;8.48;;;;;;;-4.28;78.90;95656.87;1683742;84;21256;-91
2021/01/31 07:30:31;;;;;;;14.65;8.65;;;;;;;-4.34;78.78;95659.51;1684667;83;21123;-91
2021/01/31 07:33:13;;;;;;;15.15;8.15;;;;;;;-4.29;78.98;95657.88;1688908;84;21144;-90
2021/01/31 07:36:23;;;;;;;18.50;9.33;;;;;;;-4.19;79.02;95656.13;1715253;82;21104;-90
2021/01/31 07:39:02;;;;;;;;;;;;;;;-4.11;78.82;95667.50;1733350;82;21209;-90
2021/01/31 07:41:31;;;;;;;18.55;9.83;;;;;;;-4.03;78.85;95660.00;1749269;81;20352;-90
2021/01/31 07:44:09;;;;;;;15.30;9.05;;;;;;;-4.01;78.68;95660.08;1748010;80;21203;-91
2021/01/31 07:46:37;;;;;;;15.83;8.05;;;;;;;-4.02;78.58;95662.38;1744743;80;21111;-90
2021/01/31 07:49:07;;;;;;;18.98;10.28;;;;;;;-3.90;78.68;95658.61;1751027;81;21636;-90
2021/01/31 07:51:42;;;;;;;10.25;6.10;;;;;;;-3.94;78.14;95661.31;1763762;81;21224;-91
2021/01/31 07:54:39;;;;;;;16.82;10.15;;;;;;;-3.95;77.97;95651.95;1763810;81;21478;-92
2021/01/31 07:57:34;;;;;;;14.28;8.98;;;;;;;-3.92;77.68;95645.09;1749896;80;21139;-90
2021/01/31 08:00:12;;;;;;;18.30;9.65;;;;;;;-3.54;77.65;95648.84;1733032;81;21126;-91
2021/01/31 08:02:46;;;;;;;18.95;9.98;;;;;;;-2.92;77.94;95648.83;1746646;81;21141;-91
2021/01/31 08:05:18;;;;;;;20.80;12.15;;;;;;;-2.10;77.78;95654.65;1779214;80;21497;-91
2021/01/31 08:08:03;;;;;;;18.90;11.30;;;;;;;-1.66;76.93;95653.09;1740214;80;21442;-92
2021/01/31 08:10:49;;;;;;;18.80;11.05;;;;;;;-1.41;75.99;95654.16;1747440;80;21210;-90
2021/01/31 08:16:47;;;;;;;21.37;11.53;;;;;;;-1.59;73.64;95658.95;1872775;76;22691;-91
2021/01/31 08:19:30;;;;;;;16.65;10.23;;;;;;;-1.59;73.64;95658.95;1819246;78;21461;-91
2021/01/31 08:22:05;;;;;;;15.90;9.08;;;;;;;-2.20;72.38;95641.91;1806470;78;21122;-92
2021/01/31 08:25:10;;;;;;;16.80;9.63;;;;;;;-2.20;72.38;95641.91;1817411;77;21157;-91
2021/01/31 08:27:43;;;;;;;19.05;10.98;;;;;;;-2.18;73.26;95670.53;1815275;78;21497;-91
2021/01/31 08:30:41;;;;;;;18.15;11.25;;;;;;;-2.26;73.37;95671.34;1813248;78;21115;-92
2021/01/31 08:33:31;;;;;;;18.07;11.25;;;;;;;-2.18;73.27;95674.93;1813206;78;21135;-91
2021/01/31 08:36:02;;;;;;;22.62;12.55;;;;;;;-2.21;73.35;95673.58;1823287;78;21075;-91
2021/01/31 08:38:37;;;;;;;21.12;11.70;;;;;;;-2.04;73.24;95673.73;1803779;78;21112;-92
2021/01/31 08:41:30;;;;;;;20.27;11.63;;;;;;;-2.04;73.24;95673.73;1797465;79;21104;-91
2021/01/31 08:44:15;;;;;;;17.67;11.55;;;;;;;-2.13;72.74;95671.16;1817562;78;21119;-91
2021/01/31 08:47:02;;;;;;;19.70;11.25;;;;;;;-2.16;72.56;95678.09;1812561;78;21189;-91
2021/01/31 08:49:29;;;;;;;20.62;10.80;;;;;;;-2.34;72.32;95679.45;1807794;78;21067;-90
2021/01/31 08:52:05;;;;;;;18.45;11.40;;;;;;;-2.40;72.47;95681.89;1814958;78;21270;-91
2021/01/31 08:54:33;;;;;;;18.65;11.48;;;;;;;-2.58;72.02;95680.63;1789010;79;21163;-92
2021/01/31 08:57:05;;;;;;;19.48;11.10;;;;;;;-2.65;72.08;95682.53;1801973;78;21461;-91
2021/01/31 08:59:49;;;;;;;25.37;13.38;;;;;;;-2.66;72.30;95675.75;1806703;78;21635;-91
2021/01/31 09:02:25;;;;;;;24.00;11.70;;;;;;;-2.73;71.95;95680.22;1808241;79;21476;-91
2021/01/31 09:05:00;;;;;;;20.75;11.38;;;;;;;-2.66;72.22;95681.45;1812799;77;21517;-91
2021/01/31 09:07:38;;;;;;;20.95;11.38;;;;;;;-2.73;72.18;95680.22;1805492;77;21128;-92
2021/01/31 09:10:16;;;;;;;21.65;12.25;;;;;;;-2.46;72.98;95676.80;1817435;77;21446;-91
2021/01/31 09:12:44;;;;;;;24.60;14.03;;;;;;;-2.07;73.24;95663.80;1804017;77;21108;-91
2021/01/31 09:15:22;;;;;;;21.62;12.30;;;;;;;-1.66;73.38;95665.58;1818151;78;21113;-91
2021/01/31 09:17:50;;;;;;;22.62;12.37;;;;;;;-1.35;73.00;95663.16;1812172;78;21487;-91
2021/01/31 09:20:28;;;;;;;20.43;12.50;;;;;;;-1.14;72.46;95665.68;1811579;77;21158;-92
2021/01/31 09:22:59;;;;;;;17.50;10.70;;;;;;;-0.91;72.41;95663.57;1806107;78;21143;-91
2021/01/31 09:25:28;;;;;;;19.48;11.93;;;;;;;-0.66;72.17;95676.31;1801551;77;21123;-90
2021/01/31 09:28:12;;;;;;;20.40;12.18;;;;;;;-0.61;71.66;95664.17;1785005;79;21082;-91
2021/01/31 09:30:41;;;;;;;18.77;11.40;;;;;;;-0.61;71.38;95687.59;1815486;78;21480;-91
2021/01/31 09:33:31;;;;;;;23.55;12.63;;;;;;;-0.69;70.59;95674.17;1812657;77;21107;-91
2021/01/31 09:36:03;;;;;;;16.80;11.40;;;;;;;-0.94;69.91;95680.94;1806210;79;21161;-92
2021/01/31 09:38:31;;;;;;;18.65;12.07;;;;;;;-1.28;69.20;95674.22;1787764;79;21173;-91
2021/01/31 09:41:01;;;;;;;22.90;13.58;;;;;;;-1.85;69.09;95667.45;1791479;79;21265;-93
2021/01/31 09:43:32;;;;;;;21.02;13.78;;;;;;;-1.69;70.85;95677.72;1808630;78;21455;-92
2021/01/31 09:46:01;;;;;;;;;;;;;;;-1.69;70.85;95677.72;1814406;78;21119;-91
2021/01/31 09:48:31;;;;;;;23.40;12.82;;;;;;;-1.44;71.02;95676.20;1810443;78;20346;-91
2021/01/31 09:51:06;;;;;;;19.15;11.43;;;;;;;-1.47;69.71;95681.85;1814739;78;21171;-93
2021/01/31 09:53:42;;;;;;;20.23;13.08;;;;;;;-1.80;69.01;95682.38;1818274;78;21100;-92
2021/01/31 09:56:38;;;;;;;21.77;12.78;;;;;;;-1.92;69.07;95688.84;1808306;78;21093;-93
2021/01/31 09:59:19;;;;;;;22.95;13.62;;;;;;;-1.96;69.27;95692.91;1804355;77;21125;-92
2021/01/31 10:01:47;;;;;;;17.42;11.20;;;;;;;-1.99;69.60;95686.83;1809111;78;21091;-92
2021/01/31 10:04:26;;;;;;;25.35;13.30;;;;;;;-1.91;68.80;95694.83;1822187;78;21124;-93
2021/01/31 10:07:12;;;;;;;24.30;12.90;;;;;;;-2.07;68.88;95698.85;1828568;78;21095;-91
2021/01/31 10:09:47;;;;;;;21.05;11.65;;;;;;;-2.12;68.92;95699.49;1816151;78;21101;-91
2021/01/31 10:12:32;;;;;;;22.32;13.25;;;;;;;-2.13;68.59;95697.91;1816108;78;21130;-91
2021/01/31 10:15:09;;;;;;;25.20;13.75;;;;;;;-2.08;69.33;95699.08;1805882;79;21087;-91
2021/01/31 10:17:45;;;;;;;20.97;12.65;;;;;;;-1.96;69.32;95699.91;1796365;79;21107;-92
2021/01/31 10:20:38;;;;;;;24.80;14.47;;;;;;;-1.73;69.83;95696.05;1807398;79;21074;-89
2021/01/31 10:23:15;;;;;;;31.17;15.55;;;;;;;-1.25;69.98;95676.90;1818206;79;21142;-91
2021/01/31 10:25:58;;;;;;;23.95;13.98;;;;;;;-1.25;69.98;95676.90;1797414;79;21106;-92
2021/01/31 10:28:39;;;;;;;23.20;13.83;;;;;;;-0.93;69.53;95692.93;1813556;79;21166;-93
2021/01/31 10:31:06;;;;;;;25.30;13.80;;;;;;;-0.72;69.32;95694.92;1796472;78;21099;-93
2021/01/31 10:33:50;;;;;;;30.43;16.35;;;;;;;-0.72;67.98;95698.03;1796860;79;21291;-94
2021/01/31 10:36:37;;;;;;;22.77;15.70;;;;;;;-0.74;68.67;95696.96;1796510;78;21103;-96
2021/01/31 10:39:16;;;;;;;22.98;14.23;;;;;;;-0.57;69.00;95690.53;1793528;79;21149;-92
2021/01/31 10:41:45;;;;;;;23.70;14.60;;;;;;;-0.44;68.73;95690.27;1809309;77;21134;-92
2021/01/31 10:44:26;;;;;;;28.02;15.40;;;;;;;-0.24;68.71;95698.20;1804133;78;21151;-91
2021/01/31 10:46:54;;;;;;;24.55;14.68;;;;;;;0.07;68.69;95687.81;1813500;79;21113;-93
2021/01/31 10:49:23;;;;;;;24.00;14.60;;;;;;;0.43;68.34;95690.00;1817157;79;21103;-94
2021/01/31 10:51:52;;;;;;;21.48;13.53;;;;;;;0.64;68.05;95682.48;1815467;79;21119;-94
2021/01/31 10:54:22;;;;;;;26.05;15.28;;;;;;;0.84;67.53;95684.06;1816835;79;21534;-94
2021/01/31 10:56:49;;;;;;;25.53;15.17;;;;;;;0.85;66.77;95688.28;1812176;79;21135;-94
2021/01/31 10:59:16;;;;;;;24.35;13.00;;;;;;;0.82;66.69;95686.92;1786062;79;21801;-94
2021/01/31 11:01:49;;;;;;;29.00;16.60;;;;;;;0.88;66.59;95682.06;1809251;79;21291;-94
2021/01/31 11:04:19;;;;;;;23.80;15.20;;;;;;;0.84;66.32;95684.06;1809541;78;21083;-94
2021/01/31 11:06:48;;;;;;;26.27;14.40;;;;;;;0.94;66.26;95688.14;1807287;78;21211;-95
2021/01/31 11:09:17;;;;;;;23.52;13.78;;;;;;;0.86;65.29;95685.44;1810418;79;21451;-94
2021/01/31 11:11:45;;;;;;;25.15;15.15;;;;;;;0.76;64.32;95675.36;1814020;79;21481;-95
2021/01/31 11:14:13;;;;;;;21.68;13.35;;;;;;;0.59;65.06;95678.77;1815622;78;21630;-95
2021/01/31 11:16:41;;;;;;;27.20;14.98;;;;;;;0.63;65.36;95681.69;1792676;79;21135;-91
2021/01/31 11:19:09;;;;;;;23.30;14.35;;;;;;;0.74;65.58;95682.64;1794071;79;21111;-95
2021/01/31 11:21:39;;;;;;;20.48;12.65;;;;;;;0.70;64.21;95681.52;1820472;79;21617;-95
2021/01/31 11:24:08;;;;;;;21.75;13.35;;;;;;;0.46;62.91;95683.00;1794455;79;21269;-92
2021/01/31 11:26:35;;;;;;;21.97;13.03;;;;;;;-0.02;62.78;95680.36;1779374;79;21164;-93
2021/01/31 11:29:03;;;;;;;21.93;13.15;;;;;;;-0.19;63.27;95687.36;1801271;78;21124;-93
2021/01/31 11:31:31;;;;;;;27.90;17.05;;;;;;;-0.35;62.67;95681.59;1804098;77;21149;-92
2021/01/31 11:33:59;;;;;;;31.62;18.42;;;;;;;-0.49;62.99;95682.88;1792491;79;21267;-96
2021/01/31 11:36:27;;;;;;;24.90;14.87;;;;;;;-0.56;63.00;95677.82;1767343;78;21118;-90
2021/01/31 11:38:54;;;;;;;24.18;14.10;;;;;;;-0.49;63.51;95683.67;1823154;78;21278;-93
2021/01/31 11:41:21;;;;;;;20.20;13.00;;;;;;;-0.58;63.27;95676.44;1815576;77;21263;-95
2021/01/31 11:43:49;;;;;;;24.57;14.43;;;;;;;-0.72;62.66;95676.70;1812166;77;21241;-94
2021/01/31 11:46:16;;;;;;;23.90;14.13;;;;;;;-0.98;61.97;95678.52;1812512;79;21269;-94
2021/01/31 11:48:45;;;;;;;21.07;13.10;;;;;;;-1.00;63.25;95678.73;1808315;79;21151;-93
2021/01/31 11:51:12;;;;;;;25.82;14.47;;;;;;;-0.84;62.66;95677.77;1801461;79;21255;-91
2021/01/31 11:53:39;;;;;;;20.12;12.20;;;;;;;-0.64;63.29;95676.87;1801709;79;21602;-93
2021/01/31 11:56:06;;;;;;;21.95;13.80;;;;;;;-0.42;62.28;95673.14;1815752;79;21109;-94
2021/01/31 11:58:34;;;;;;;25.90;15.05;;;;;;;-0.35;62.46;95679.77;1818273;79;21121;-94
2021/01/31 12:01:01;;;;;;;23.87;14.18;;;;;;;-0.47;62.23;95676.92;1831290;77;21472;-94
2021/01/31 12:03:28;;;;;;;22.40;13.68;;;;;;;-0.57;61.27;95678.81;1814426;79;21101;-92
2021/01/31 12:05:55;;;;;;;23.10;14.00;;;;;;;-0.81;61.87;95670.29;1821508;77;21071;-91
2021/01/31 12:08:23;;;;;;;24.23;13.95;;;;;;;-0.81;61.87;95670.29;1802247;79;21154;-92